Weather History for KOKK - April, 2014

Change the Weather History Date:

Sunday, April 13, 2014

  Actual Average (KGUS) Record (KGUS)
Temperature  
Mean Temperature 64 °F -  
Max Temperature 73 °F 60 °F - (-1)
Min Temperature 55 °F 40 °F - (-1)
Degree Days  
Heating Degree Days 1    
Growing Degree Days 14 (Base 50)    
Moisture  
Dew Point 54 °F    
Average Humidity 64    
Maximum Humidity 77    
Minimum Humidity 53    
Precipitation  
Precipitation 0.00 in - - ()
Sea Level Pressure  
Sea Level Pressure 29.76 in    
Wind  
Wind Speed 14 mph (SSW)    
Max Wind Speed 25 mph    
Max Gust Speed 36 mph    
Visibility 10 miles    
Events      
Averages and records for this station are not official NWS values.
T = Trace of Precipitation, MM = Missing Value Source: NWS Daily Summary

Daily Weather History Graph

Daily Weather History Graph

Search for Another Location

Airport or City:

Trip Planner

Search our weather history database for the weather conditions in past years. The results will help you decide how hot, cold, wet, or windy it might be!

Date:

Astronomy

Apr. 13, 2014 Rise Set
Actual Time 6:08 AM CDT 7:21 PM CDT
Civil Twilight 5:40 AM CDT 7:49 PM CDT
Nautical Twilight 5:07 AM CDT 8:23 PM CDT
Astronomical Twilight 4:31 AM CDT 8:58 PM CDT
Moon 5:58 PM CDT (4/13) 5:07 AM CDT (4/13)
Length of Visible Light 14h 08m
Length of Day
13h 12m
Waxing Gibbous, 97% of the Moon is Illuminated
Apr 13
Waxing Gibbous
Apr 15
Full
Apr 22
Last Quarter
Apr 29
New
May 6
First Quarter

Hourly Weather History & Observations

Time (CDT) Temp. Dew Point Humidity Pressure Visibility Wind Dir Wind Speed Gust Speed Precip Events Conditions
12:15 AM 57.2 °F 48.2 °F 72% 29.79 in 10.0 mi South 4.6 mph - N/A   Clear
12:35 AM 57.2 °F 48.2 °F 72% 29.79 in 10.0 mi South 4.6 mph - N/A   Clear
12:55 AM 57.2 °F 48.2 °F 72% 29.80 in 10.0 mi South 4.6 mph - N/A   Clear
1:15 AM 57.2 °F 48.2 °F 72% 29.80 in 10.0 mi South 6.9 mph - N/A   Clear
1:35 AM 55.4 °F 48.2 °F 77% 29.79 in 10.0 mi South 6.9 mph - N/A   Clear
1:55 AM 57.2 °F 50.0 °F 77% 29.79 in 10.0 mi South 9.2 mph - N/A   Clear
2:15 AM 57.2 °F 50.0 °F 77% 29.79 in 10.0 mi South 8.1 mph - N/A   Clear
2:35 AM 57.2 °F 48.2 °F 72% 29.80 in 10.0 mi SSW 8.1 mph - N/A   Clear
2:55 AM 57.2 °F 50.0 °F 77% 29.80 in 10.0 mi South 10.4 mph - N/A   Clear
3:15 AM 60.8 °F 51.8 °F 72% 29.81 in 10.0 mi SSW 12.7 mph - N/A   Clear
3:35 AM 62.6 °F 51.8 °F 68% 29.81 in 10.0 mi SW 13.8 mph 19.6 mph N/A   Clear
3:55 AM 62.6 °F 51.8 °F 68% 29.81 in 10.0 mi SW 15.0 mph 21.9 mph N/A   Clear
4:15 AM 62.6 °F 51.8 °F 68% 29.80 in 10.0 mi SW 13.8 mph - N/A   Clear
4:35 AM 62.6 °F 51.8 °F 68% 29.80 in 10.0 mi SW 17.3 mph - N/A   Clear
4:55 AM 62.6 °F 51.8 °F 68% 29.80 in 10.0 mi SSW 16.1 mph 21.9 mph N/A   Clear
5:15 AM 62.6 °F 53.6 °F 72% 29.80 in 10.0 mi SW 17.3 mph - N/A   Partly Cloudy
5:35 AM 62.6 °F 53.6 °F 72% 29.79 in 10.0 mi SSW 17.3 mph 27.6 mph N/A   Partly Cloudy
5:55 AM 62.6 °F 53.6 °F 72% 29.79 in 10.0 mi SSW 18.4 mph 23.0 mph N/A   Clear
6:15 AM 62.6 °F 51.8 °F 68% 29.80 in 10.0 mi SSW 17.3 mph - N/A   Scattered Clouds
6:35 AM 62.6 °F 53.6 °F 72% 29.80 in 10.0 mi SSW 16.1 mph - N/A   Mostly Cloudy
6:55 AM 62.6 °F 53.6 °F 72% 29.80 in 10.0 mi SSW 17.3 mph 25.3 mph N/A   Mostly Cloudy
7:15 AM 62.6 °F 53.6 °F 72% 29.81 in 10.0 mi SSW 17.3 mph - N/A   Clear
7:35 AM 62.6 °F 53.6 °F 72% 29.82 in 10.0 mi SSW 18.4 mph 25.3 mph N/A   Scattered Clouds
7:55 AM 64.4 °F 53.6 °F 68% 29.82 in 10.0 mi SSW 23.0 mph 28.8 mph N/A   Mostly Cloudy
8:15 AM 64.4 °F 55.4 °F 73% 29.82 in 10.0 mi SW 19.6 mph 28.8 mph N/A   Overcast
8:35 AM 64.4 °F 55.4 °F 73% 29.82 in 10.0 mi SW 17.3 mph 26.5 mph N/A   Overcast
8:55 AM 64.4 °F 53.6 °F 68% 29.82 in 10.0 mi SW 18.4 mph 26.5 mph N/A   Overcast
9:15 AM 66.2 °F 55.4 °F 68% 29.82 in 10.0 mi SW 16.1 mph 26.5 mph N/A   Overcast
9:35 AM 68.0 °F 55.4 °F 64% 29.83 in 10.0 mi SW 19.6 mph 27.6 mph N/A   Overcast
9:55 AM 68.0 °F 55.4 °F 64% 29.82 in 10.0 mi SW 18.4 mph 28.8 mph N/A   Overcast
10:35 AM 69.8 °F 57.2 °F 64% 29.82 in 10.0 mi SW 18.4 mph 32.2 mph N/A   Mostly Cloudy
10:55 AM 69.8 °F 55.4 °F 60% 29.83 in 10.0 mi SW 24.2 mph 31.1 mph N/A   Overcast
11:15 AM 71.6 °F 55.4 °F 57% 29.82 in 10.0 mi SW 21.9 mph 29.9 mph N/A   Mostly Cloudy
11:35 AM 71.6 °F 55.4 °F 57% 29.83 in 10.0 mi SW 21.9 mph 33.4 mph N/A   Overcast
11:55 AM 71.6 °F 55.4 °F 57% 29.83 in 10.0 mi SW 21.9 mph 28.8 mph N/A   Mostly Cloudy
12:15 PM 69.8 °F 55.4 °F 60% 29.83 in 10.0 mi SW 25.3 mph 33.4 mph N/A   Mostly Cloudy
12:35 PM 69.8 °F 55.4 °F 60% 29.84 in 10.0 mi SW 23.0 mph 32.2 mph N/A   Overcast
12:55 PM 71.6 °F 55.4 °F 57% 29.82 in 10.0 mi SSW 21.9 mph 33.4 mph N/A   Mostly Cloudy
1:15 PM 71.6 °F 55.4 °F 57% 29.82 in 10.0 mi SW 20.7 mph 26.5 mph N/A   Partly Cloudy
1:35 PM 71.6 °F 57.2 °F 60% 29.80 in 10.0 mi SW 20.7 mph 27.6 mph N/A   Partly Cloudy
1:55 PM 73.4 °F 57.2 °F 57% 29.80 in 10.0 mi SSW 25.3 mph 29.9 mph N/A   Scattered Clouds
2:15 PM 73.4 °F 57.2 °F 57% 29.79 in 10.0 mi SSW 20.7 mph 29.9 mph N/A   Mostly Cloudy
2:35 PM 73.4 °F 57.2 °F 57% 29.78 in 10.0 mi SSW 20.7 mph 27.6 mph N/A   Mostly Cloudy
2:55 PM 73.4 °F 57.2 °F 57% 29.77 in 10.0 mi SSW 24.2 mph - N/A   Overcast
3:15 PM 73.4 °F 55.4 °F 53% 29.76 in 10.0 mi SW 21.9 mph 35.7 mph N/A   Mostly Cloudy
3:35 PM 73.4 °F 55.4 °F 53% 29.76 in 10.0 mi SSW 25.3 mph 33.4 mph N/A   Partly Cloudy
3:55 PM 73.4 °F 55.4 °F 53% 29.75 in 10.0 mi SSW 19.6 mph 24.2 mph N/A   Mostly Cloudy
4:15 PM 73.4 °F 55.4 °F 53% 29.74 in 10.0 mi SSW 16.1 mph 25.3 mph N/A   Mostly Cloudy
4:35 PM 73.4 °F 55.4 °F 53% 29.73 in 10.0 mi SSW 17.3 mph 25.3 mph N/A   Overcast
4:55 PM 73.4 °F 55.4 °F 53% 29.72 in 10.0 mi SSW 16.1 mph 19.6 mph N/A   Overcast
5:15 PM 73.4 °F 55.4 °F 53% 29.72 in 10.0 mi SSW 17.3 mph 21.9 mph N/A   Mostly Cloudy
5:35 PM 73.4 °F 55.4 °F 53% 29.71 in 10.0 mi SSW 13.8 mph - N/A   Mostly Cloudy
5:55 PM 73.4 °F 55.4 °F 53% 29.70 in 10.0 mi SSW 12.7 mph - N/A   Mostly Cloudy
6:15 PM 73.4 °F 55.4 °F 53% 29.69 in 10.0 mi SSW 17.3 mph - N/A   Mostly Cloudy
6:35 PM 73.4 °F 55.4 °F 53% 29.70 in 10.0 mi SW 23.0 mph 27.6 mph N/A   Overcast
6:55 PM 71.6 °F 55.4 °F 57% 29.68 in 10.0 mi SW 17.3 mph 31.1 mph N/A   Mostly Cloudy
7:15 PM 71.6 °F 55.4 °F 57% 29.67 in 10.0 mi SSW 16.1 mph - N/A   Partly Cloudy
7:35 PM 69.8 °F 55.4 °F 60% 29.68 in 10.0 mi SW 16.1 mph 23.0 mph N/A   Clear
7:55 PM 69.8 °F 55.4 °F 60% 29.68 in 10.0 mi SW 17.3 mph 21.9 mph N/A   Mostly Cloudy
8:15 PM 69.8 °F 55.4 °F 60% 29.69 in 10.0 mi SW 21.9 mph 27.6 mph N/A   Overcast
8:35 PM 69.8 °F 55.4 °F 60% 29.68 in 10.0 mi SW 15.0 mph - N/A   Mostly Cloudy
8:55 PM 69.8 °F 55.4 °F 60% 29.67 in 10.0 mi SSW 19.6 mph 25.3 mph N/A   Partly Cloudy
9:15 PM 69.8 °F 55.4 °F 60% 29.66 in 10.0 mi SSW 16.1 mph 21.9 mph N/A   Clear
9:35 PM 68.0 °F 55.4 °F 64% 29.64 in 10.0 mi SSW 16.1 mph 23.0 mph N/A   Clear
9:55 PM 66.2 °F 55.4 °F 68% 29.64 in 10.0 mi SSW 12.7 mph - N/A   Clear
10:15 PM 66.2 °F 55.4 °F 68% 29.63 in 10.0 mi South 11.5 mph - N/A   Clear
10:35 PM 66.2 °F 53.6 °F 64% 29.63 in 10.0 mi South 11.5 mph - N/A   Clear
10:55 PM 64.4 °F 53.6 °F 68% 29.61 in 10.0 mi South 12.7 mph - N/A   Clear
11:15 PM 64.4 °F 55.4 °F 73% 29.61 in 10.0 mi South 12.7 mph - N/A   Clear
11:35 PM 64.4 °F 55.4 °F 73% 29.60 in 10.0 mi South 11.5 mph - N/A   Clear
11:55 PM 66.2 °F 53.6 °F 64% 29.60 in 10.0 mi South 12.7 mph - N/A   Mostly Cloudy